createdAt,value
2019-01-06T00:00:56.019Z,101413.00
2019-01-06T00:03:32.713Z,101418.00
2019-01-06T00:06:06.763Z,101422.00
2019-01-06T00:08:43.602Z,101415.00
2019-01-06T00:11:20.670Z,101411.00
2019-01-06T00:13:54.363Z,101424.00
2019-01-06T00:16:34.963Z,101422.00
2019-01-06T00:19:21.363Z,101421.00
2019-01-06T00:22:11.739Z,101404.00
2019-01-06T00:24:51.698Z,101404.00
2019-01-06T00:27:26.094Z,101414.00
2019-01-06T00:30:08.743Z,101413.00
2019-01-06T00:32:53.087Z,101408.00
2019-01-06T00:35:30.041Z,101416.00
2019-01-06T00:38:16.259Z,101422.00
2019-01-06T00:40:59.163Z,101413.00
2019-01-06T00:43:34.149Z,101401.00
2019-01-06T00:46:24.687Z,101405.00
2019-01-06T00:48:58.604Z,101405.00
2019-01-06T00:51:47.969Z,101395.00
2019-01-06T00:54:37.338Z,101396.00
2019-01-06T00:57:11.267Z,101400.00
2019-01-06T00:59:57.976Z,101398.00
2019-01-06T01:02:31.924Z,101396.00
2019-01-06T01:05:09.129Z,101395.00
2019-01-06T01:07:48.965Z,101392.00
2019-01-06T01:10:33.340Z,101392.00
2019-01-06T01:13:17.297Z,101386.00
2019-01-06T01:16:06.983Z,101391.00
2019-01-06T01:18:42.025Z,101394.00
2019-01-06T01:21:26.763Z,101388.00
2019-01-06T01:24:04.287Z,101391.00
2019-01-06T01:26:48.544Z,101391.00
2019-01-06T01:29:39.323Z,101381.00
2019-01-06T01:32:14.421Z,101371.00
2019-01-06T01:34:52.160Z,101372.00
2019-01-06T01:37:44.918Z,101362.00
2019-01-06T01:40:21.189Z,101356.00
2019-01-06T01:43:11.621Z,101360.00
2019-01-06T01:45:54.720Z,101363.00
2019-01-06T01:48:34.339Z,101371.00
2019-01-06T01:51:20.837Z,101388.00
2019-01-06T01:54:12.552Z,101401.00
2019-01-06T01:57:01.533Z,101406.00
2019-01-06T01:59:38.907Z,101404.00
2019-01-06T02:02:13.583Z,101397.00
2019-01-06T02:05:03.535Z,101400.00
2019-01-06T02:07:40.920Z,101399.00
2019-01-06T02:10:27.655Z,101396.00
2019-01-06T02:13:01.761Z,101401.00
2019-01-06T02:15:39.143Z,101406.00
2019-01-06T02:18:28.924Z,101398.00
2019-01-06T02:21:05.711Z,101410.00
2019-01-06T02:23:39.682Z,101407.00
2019-01-06T02:26:32.665Z,101402.00
2019-01-06T02:29:22.861Z,101415.00
2019-01-06T02:31:56.866Z,101408.00
2019-01-06T02:34:33.959Z,101407.00
2019-01-06T02:37:07.947Z,101412.00
2019-01-06T02:39:47.923Z,101407.00
2019-01-06T02:42:37.080Z,101411.00
2019-01-06T02:45:17.328Z,101408.00
2019-01-06T02:47:57.770Z,101410.00
2019-01-06T02:50:31.893Z,101416.00
2019-01-06T02:53:12.569Z,101408.00
2019-01-06T02:56:02.091Z,101412.00
2019-01-06T02:58:54.090Z,101405.00
2019-01-06T03:01:30.873Z,101409.00
2019-01-06T03:04:20.330Z,101394.00
2019-01-06T03:07:09.472Z,101389.00
2019-01-06T03:09:59.871Z,101387.00
2019-01-06T03:12:49.853Z,101389.00
2019-01-06T03:15:24.398Z,101393.00
2019-01-06T03:18:14.572Z,101388.00
2019-01-06T03:21:07.758Z,101386.00
2019-01-06T03:23:41.844Z,101389.00
2019-01-06T03:26:25.324Z,101381.00
2019-01-06T03:29:03.061Z,101370.00
2019-01-06T03:31:43.187Z,101376.00
2019-01-06T03:34:17.164Z,101362.00
2019-01-06T03:37:09.084Z,101370.00
2019-01-06T03:39:51.991Z,101365.00
2019-01-06T03:42:29.187Z,101357.00
2019-01-06T03:45:09.139Z,101363.00
2019-01-06T03:47:49.704Z,101364.00
2019-01-06T03:50:39.975Z,101371.00
2019-01-06T03:53:29.141Z,101351.00
2019-01-06T03:56:03.003Z,101343.00
2019-01-06T03:58:40.352Z,101349.00
2019-01-06T04:01:14.808Z,101351.00
2019-01-06T04:03:51.958Z,101344.00
2019-01-06T04:06:28.839Z,101332.00
2019-01-06T04:09:18.223Z,101336.00
2019-01-06T04:11:52.050Z,101331.00
2019-01-06T04:14:43.874Z,101326.00
2019-01-06T04:17:18.046Z,101316.00
2019-01-06T04:20:09.852Z,101323.00
2019-01-06T04:22:43.673Z,101323.00
2019-01-06T04:25:20.442Z,101309.00
2019-01-06T04:28:12.615Z,101310.00
2019-01-06T04:30:47.425Z,101317.00
2019-01-06T04:33:21.254Z,101319.00
2019-01-06T04:35:59.226Z,101317.00
2019-01-06T04:38:35.690Z,101310.00
2019-01-06T04:41:18.808Z,101306.00
2019-01-06T04:43:52.785Z,101315.00
2019-01-06T04:46:26.847Z,101307.00
2019-01-06T04:49:07.100Z,101314.00
2019-01-06T04:51:41.746Z,101321.00
2019-01-06T04:54:24.560Z,101317.00
2019-01-06T04:57:02.237Z,101314.00
2019-01-06T04:59:48.326Z,101326.00
2019-01-06T05:02:22.868Z,101326.00
2019-01-06T05:05:13.183Z,101313.00
2019-01-06T05:07:50.532Z,101317.00
2019-01-06T05:10:40.617Z,101316.00
2019-01-06T05:13:30.865Z,101308.00
2019-01-06T05:16:07.605Z,101296.00
2019-01-06T05:18:44.655Z,101298.00
2019-01-06T05:21:24.635Z,101294.00
2019-01-06T05:23:58.638Z,101289.00
2019-01-06T05:26:48.916Z,101291.00
2019-01-06T05:29:23.071Z,101283.00
2019-01-06T05:31:57.251Z,101286.00
2019-01-06T05:34:40.295Z,101289.00
2019-01-06T05:37:14.061Z,101295.00
2019-01-06T05:39:57.411Z,101285.00
2019-01-06T05:42:47.493Z,101276.00
2019-01-06T05:45:21.607Z,101289.00
2019-01-06T05:47:58.607Z,101290.00
2019-01-06T05:50:36.181Z,101294.00
2019-01-06T05:53:26.170Z,101286.00
2019-01-06T05:56:16.891Z,101298.00
2019-01-06T05:59:06.138Z,101296.00
2019-01-06T06:01:49.483Z,101305.00
2019-01-06T06:04:26.447Z,101308.00
2019-01-06T06:07:18.390Z,101310.00
2019-01-06T06:10:00.886Z,101309.00
2019-01-06T06:12:53.625Z,101306.00
2019-01-06T06:15:39.725Z,101310.00
2019-01-06T06:18:32.497Z,101312.00
2019-01-06T06:21:21.548Z,101316.00
2019-01-06T06:24:01.511Z,101317.00
2019-01-06T06:26:38.281Z,101317.00
2019-01-06T06:29:29.807Z,101316.00
2019-01-06T06:32:03.769Z,101322.00
2019-01-06T06:34:54.299Z,101325.00
2019-01-06T06:37:30.996Z,101334.00
2019-01-06T06:40:14.018Z,101335.00
2019-01-06T06:42:59.690Z,101328.00
2019-01-06T06:45:49.150Z,101333.00
2019-01-06T06:48:23.271Z,101339.00
2019-01-06T06:51:19.001Z,101348.00
2019-01-06T06:54:08.982Z,101342.00
2019-01-06T06:56:46.498Z,101343.00
2019-01-06T06:59:29.176Z,101358.00
2019-01-06T07:02:39.979Z,101361.00
2019-01-06T07:05:13.795Z,101358.00
2019-01-06T07:07:48.092Z,101363.00
2019-01-06T07:10:31.925Z,101361.00
2019-01-06T07:13:22.854Z,101372.00
2019-01-06T07:16:06.841Z,101369.00
2019-01-06T07:18:41.116Z,101375.00
2019-01-06T07:21:18.120Z,101373.00
2019-01-06T07:23:54.992Z,101380.00
2019-01-06T07:26:29.054Z,101381.00
2019-01-06T07:29:06.444Z,101377.00
2019-01-06T07:31:40.388Z,101376.00
2019-01-06T07:34:32.589Z,101383.00
2019-01-06T07:37:18.581Z,101374.00
2019-01-06T07:39:56.221Z,101374.00
2019-01-06T07:42:46.469Z,101379.00
2019-01-06T07:45:34.928Z,101377.00
2019-01-06T07:48:11.893Z,101381.00
2019-01-06T07:50:52.175Z,101378.00
2019-01-06T07:53:42.242Z,101374.00
2019-01-06T07:56:22.211Z,101380.00
2019-01-06T07:58:59.084Z,101385.00
2019-01-06T08:01:33.316Z,101387.00
2019-01-06T08:04:16.400Z,101391.00
2019-01-06T08:07:02.621Z,101395.00
2019-01-06T08:09:37.552Z,101396.00
2019-01-06T08:12:11.725Z,101397.00
2019-01-06T08:14:49.764Z,101405.00
2019-01-06T08:17:30.358Z,101407.00
2019-01-06T08:20:13.173Z,101413.00
2019-01-06T08:22:50.040Z,101416.00
2019-01-06T08:25:39.793Z,101420.00
2019-01-06T08:28:19.433Z,101416.00
2019-01-06T08:31:09.320Z,101428.00
2019-01-06T08:33:58.797Z,101433.00
2019-01-06T08:36:48.884Z,101428.00
2019-01-06T08:39:32.518Z,101434.00
2019-01-06T08:42:22.595Z,101436.00
2019-01-06T08:45:13.221Z,101445.00
2019-01-06T08:48:03.088Z,101443.00
2019-01-06T08:50:37.441Z,101439.00
2019-01-06T08:53:12.542Z,101450.00
2019-01-06T08:55:52.524Z,101447.00
2019-01-06T08:58:26.559Z,101461.00
2019-01-06T09:01:04.306Z,101460.00
2019-01-06T09:03:44.774Z,101466.00
2019-01-06T09:06:28.017Z,101472.00
2019-01-06T09:09:17.163Z,101471.00
2019-01-06T09:11:54.467Z,101465.00
2019-01-06T09:14:28.384Z,101467.00
2019-01-06T09:17:17.522Z,101466.00
2019-01-06T09:19:56.469Z,101468.00
2019-01-06T09:22:42.563Z,101474.00
2019-01-06T09:25:22.595Z,101475.00
2019-01-06T09:28:12.026Z,101478.00
2019-01-06T09:30:48.894Z,101459.00
2019-01-06T09:33:39.235Z,101471.00
2019-01-06T09:36:29.149Z,101466.00
2019-01-06T09:39:21.274Z,101469.00
2019-01-06T09:42:11.237Z,101474.00
2019-01-06T09:45:00.434Z,101461.00
2019-01-06T09:47:37.277Z,101453.00
2019-01-06T09:50:27.271Z,101456.00
2019-01-06T09:53:07.333Z,101461.00
2019-01-06T09:55:53.634Z,101458.00
2019-01-06T09:58:27.643Z,101462.00
2019-01-06T10:01:18.647Z,101458.00
2019-01-06T10:03:58.896Z,101454.00
2019-01-06T10:06:35.990Z,101455.00
2019-01-06T10:09:44.613Z,101461.00
2019-01-06T10:12:34.309Z,101463.00
2019-01-06T10:15:08.475Z,101460.00
2019-01-06T10:17:58.803Z,101463.00
2019-01-06T10:20:35.591Z,101468.00
2019-01-06T10:23:25.955Z,101466.00
2019-01-06T10:26:14.623Z,101468.00
2019-01-06T10:28:51.853Z,101460.00
2019-01-06T10:31:28.984Z,101469.00
2019-01-06T10:34:13.332Z,101465.00
2019-01-06T10:36:56.349Z,101467.00
2019-01-06T10:39:36.528Z,101483.00
2019-01-06T10:42:13.439Z,101480.00
2019-01-06T10:45:06.338Z,101479.00
2019-01-06T10:47:57.071Z,101472.00
2019-01-06T10:50:47.774Z,101485.00
2019-01-06T10:53:34.048Z,101480.00
2019-01-06T10:56:17.493Z,101478.00
2019-01-06T10:59:07.170Z,101475.00
2019-01-06T11:01:47.407Z,101467.00
2019-01-06T11:04:21.115Z,101462.00
2019-01-06T11:07:01.590Z,101459.00
2019-01-06T11:09:51.677Z,101457.00
2019-01-06T11:12:31.926Z,101466.00
2019-01-06T11:15:21.901Z,101462.00
2019-01-06T11:18:14.043Z,101465.00
2019-01-06T11:21:05.983Z,101464.00
2019-01-06T11:23:56.578Z,101469.00
2019-01-06T11:26:46.455Z,101472.00
2019-01-06T11:29:20.697Z,101470.00
2019-01-06T11:32:03.501Z,101471.00
2019-01-06T11:34:54.482Z,101485.00
2019-01-06T11:37:34.151Z,101481.00
2019-01-06T11:40:09.397Z,101482.00
2019-01-06T11:42:59.668Z,101485.00
2019-01-06T11:45:42.495Z,101488.00
2019-01-06T11:48:32.374Z,101492.00
2019-01-06T11:51:12.415Z,101494.00
2019-01-06T11:53:49.302Z,101490.00
2019-01-06T11:56:23.208Z,101489.00
2019-01-06T11:59:03.058Z,101492.00
2019-01-06T12:01:47.277Z,101479.00
2019-01-06T12:04:37.513Z,101485.00
2019-01-06T12:07:17.850Z,101479.00
2019-01-06T12:10:09.694Z,101470.00
2019-01-06T12:13:02.647Z,101467.00
2019-01-06T12:15:52.835Z,101470.00
2019-01-06T12:18:43.232Z,101459.00
2019-01-06T12:21:23.480Z,101457.00
2019-01-06T12:24:00.243Z,101454.00
2019-01-06T12:26:52.399Z,101454.00
2019-01-06T12:29:27.521Z,101444.00
2019-01-06T12:32:01.419Z,101444.00
2019-01-06T12:34:51.008Z,101438.00
2019-01-06T12:37:41.296Z,101434.00
2019-01-06T12:40:21.366Z,101427.00
2019-01-06T12:43:11.776Z,101435.00
2019-01-06T12:46:01.419Z,101420.00
2019-01-06T12:48:41.479Z,101417.00
2019-01-06T12:51:19.026Z,101415.00
2019-01-06T12:53:53.179Z,101408.00
2019-01-06T12:56:43.713Z,101402.00
2019-01-06T12:59:17.476Z,101400.00
2019-01-06T13:02:04.303Z,101402.00
2019-01-06T13:04:54.488Z,101403.00
2019-01-06T13:07:45.003Z,101403.00
2019-01-06T13:10:21.794Z,101396.00
2019-01-06T13:12:56.097Z,101390.00
2019-01-06T13:15:33.071Z,101381.00
2019-01-06T13:18:07.080Z,101381.00
2019-01-06T13:20:57.067Z,101376.00
2019-01-06T13:23:48.087Z,101364.00
2019-01-06T13:26:37.160Z,101362.00
2019-01-06T13:29:27.205Z,101367.00
2019-01-06T13:32:01.750Z,101378.00
2019-01-06T13:34:39.637Z,101379.00
2019-01-06T13:37:13.327Z,101372.00
2019-01-06T13:40:03.429Z,101375.00
2019-01-06T13:42:43.406Z,101374.00
2019-01-06T13:45:23.534Z,101369.00
2019-01-06T13:48:03.103Z,101365.00
2019-01-06T13:50:37.081Z,101356.00
2019-01-06T13:53:26.984Z,101356.00
2019-01-06T13:56:17.585Z,101344.00
2019-01-06T13:58:54.138Z,101363.00
2019-01-06T14:01:44.549Z,101362.00
2019-01-06T14:04:18.223Z,101356.00
2019-01-06T14:06:59.836Z,101359.00
2019-01-06T14:09:46.258Z,101359.00
2019-01-06T14:12:37.238Z,101359.00
2019-01-06T14:15:14.417Z,101360.00
2019-01-06T14:18:05.151Z,101355.00
2019-01-06T14:20:55.227Z,101358.00
2019-01-06T14:23:41.433Z,101346.00
2019-01-06T14:26:31.826Z,101342.00
2019-01-06T14:29:08.491Z,101331.00
2019-01-06T14:31:58.285Z,101336.00
2019-01-06T14:34:44.763Z,101339.00
2019-01-06T14:37:30.946Z,101341.00
2019-01-06T14:40:21.608Z,101346.00
2019-01-06T14:43:04.885Z,101357.00
2019-01-06T14:45:45.462Z,101352.00
2019-01-06T14:48:35.791Z,101351.00
2019-01-06T14:51:19.476Z,101343.00
2019-01-06T14:54:09.065Z,101341.00
2019-01-06T14:56:59.399Z,101331.00
2019-01-06T14:59:36.626Z,101339.00
2019-01-06T15:02:26.116Z,101336.00
2019-01-06T15:05:06.188Z,101324.00
2019-01-06T15:07:43.234Z,101330.00
2019-01-06T15:10:20.114Z,101336.00
2019-01-06T15:13:00.490Z,101334.00
2019-01-06T15:15:50.976Z,101323.00
2019-01-06T15:18:25.972Z,101322.00
2019-01-06T15:21:08.948Z,101323.00
2019-01-06T15:23:49.008Z,101329.00
2019-01-06T15:26:28.734Z,101323.00
2019-01-06T15:29:05.623Z,101328.00
2019-01-06T15:31:48.654Z,101328.00
2019-01-06T15:34:30.497Z,101328.00
2019-01-06T15:37:06.613Z,101327.00
2019-01-06T15:39:43.989Z,101321.00
2019-01-06T15:42:23.714Z,101322.00
2019-01-06T15:45:10.563Z,101321.00
2019-01-06T15:47:57.059Z,101327.00
2019-01-06T15:50:32.151Z,101325.00
2019-01-06T15:53:22.349Z,101332.00
2019-01-06T15:56:08.771Z,101342.00
2019-01-06T15:58:58.838Z,101345.00
2019-01-06T16:01:35.739Z,101337.00
2019-01-06T16:04:22.129Z,101330.00
2019-01-06T16:07:08.333Z,101339.00
2019-01-06T16:09:57.584Z,101348.00
2019-01-06T16:12:48.808Z,101352.00
2019-01-06T16:15:26.415Z,101355.00
2019-01-06T16:18:18.447Z,101349.00
2019-01-06T16:20:52.651Z,101360.00
2019-01-06T16:23:32.415Z,101359.00
2019-01-06T16:26:09.880Z,101356.00
2019-01-06T16:28:59.667Z,101352.00
2019-01-06T16:31:45.979Z,101348.00
2019-01-06T16:34:19.660Z,101343.00
2019-01-06T16:37:11.080Z,101351.00
2019-01-06T16:39:50.962Z,101365.00
2019-01-06T16:42:34.173Z,101366.00
2019-01-06T16:45:15.240Z,101371.00
2019-01-06T16:47:52.583Z,101364.00
2019-01-06T16:50:36.159Z,101370.00
2019-01-06T16:53:13.253Z,101359.00
2019-01-06T16:55:59.435Z,101363.00
2019-01-06T16:58:45.751Z,101369.00
2019-01-06T17:01:29.165Z,101364.00
2019-01-06T17:04:12.117Z,101364.00
2019-01-06T17:06:46.228Z,101365.00
2019-01-06T17:09:26.870Z,101368.00
2019-01-06T17:12:19.026Z,101372.00
2019-01-06T17:14:56.334Z,101368.00
2019-01-06T17:17:47.019Z,101374.00
2019-01-06T17:20:39.122Z,101396.00
2019-01-06T17:23:29.418Z,101396.00
2019-01-06T17:26:09.995Z,101397.00
2019-01-06T17:28:56.515Z,101399.00
2019-01-06T17:31:33.697Z,101399.00
2019-01-06T17:34:24.270Z,101405.00
2019-01-06T17:37:04.989Z,101400.00
2019-01-06T17:39:54.917Z,101401.00
2019-01-06T17:42:41.753Z,101411.00
2019-01-06T17:45:25.265Z,101406.00
2019-01-06T17:48:11.578Z,101404.00
2019-01-06T17:51:01.156Z,101398.00
2019-01-06T17:53:38.661Z,101392.00
2019-01-06T17:56:27.508Z,101395.00
2019-01-06T17:59:07.865Z,101400.00
2019-01-06T18:01:41.966Z,101408.00
2019-01-06T18:04:32.186Z,101423.00
2019-01-06T18:07:12.216Z,101421.00
2019-01-06T18:09:46.623Z,101422.00
2019-01-06T18:12:37.120Z,101431.00
2019-01-06T18:15:18.435Z,101434.00
2019-01-06T18:18:01.847Z,101440.00
2019-01-06T18:20:52.141Z,101440.00
2019-01-06T18:23:28.818Z,101439.00
2019-01-06T18:26:09.868Z,101460.00
2019-01-06T18:29:00.164Z,101453.00
2019-01-06T18:31:34.378Z,101461.00
2019-01-06T18:34:20.392Z,101468.00
2019-01-06T18:37:00.843Z,101453.00
2019-01-06T18:39:37.742Z,101458.00
2019-01-06T18:42:30.299Z,101461.00
2019-01-06T18:45:10.615Z,101469.00
2019-01-06T18:48:01.014Z,101465.00
2019-01-06T18:50:51.443Z,101480.00
2019-01-06T18:53:25.991Z,101483.00
2019-01-06T18:56:11.799Z,101472.00
2019-01-06T18:58:55.329Z,101468.00
2019-01-06T19:01:29.063Z,101468.00
2019-01-06T19:04:15.483Z,101461.00
2019-01-06T19:06:56.019Z,101458.00
2019-01-06T19:09:36.321Z,101465.00
2019-01-06T19:12:10.394Z,101483.00
2019-01-06T19:14:50.345Z,101469.00
2019-01-06T19:17:41.418Z,101471.00
2019-01-06T19:20:16.007Z,101478.00
2019-01-06T19:23:08.339Z,101485.00
2019-01-06T19:25:58.937Z,101475.00
2019-01-06T19:28:42.258Z,101477.00
2019-01-06T19:31:32.832Z,101476.00
2019-01-06T19:34:09.740Z,101464.00
2019-01-06T19:36:56.653Z,101464.00
2019-01-06T19:39:47.167Z,101463.00
2019-01-06T19:42:24.924Z,101468.00
2019-01-06T19:45:06.190Z,101466.00
2019-01-06T19:47:43.418Z,101466.00
2019-01-06T19:50:17.430Z,101458.00
2019-01-06T19:52:51.847Z,101447.00
2019-01-06T19:55:41.226Z,101450.00
2019-01-06T19:58:21.278Z,101437.00
2019-01-06T20:01:12.670Z,101436.00
2019-01-06T20:04:05.251Z,101435.00
2019-01-06T20:06:54.483Z,101431.00
2019-01-06T20:09:43.949Z,101430.00
2019-01-06T20:12:29.863Z,101436.00
2019-01-06T20:15:13.455Z,101443.00
2019-01-06T20:18:03.523Z,101435.00
2019-01-06T20:20:43.838Z,101432.00
2019-01-06T20:23:18.175Z,101438.00
2019-01-06T20:26:02.773Z,101444.00
2019-01-06T20:28:43.095Z,101442.00
2019-01-06T20:31:23.440Z,101447.00
2019-01-06T20:34:00.743Z,101447.00
2019-01-06T20:36:44.450Z,101461.00
2019-01-06T20:39:30.252Z,101463.00
2019-01-06T20:42:15.083Z,101460.00
2019-01-06T20:44:49.106Z,101452.00
2019-01-06T20:47:39.560Z,101449.00
2019-01-06T20:50:19.881Z,101461.00
2019-01-06T20:52:54.389Z,101464.00
2019-01-06T20:55:37.018Z,101468.00
2019-01-06T20:58:27.493Z,101460.00
2019-01-06T21:01:07.759Z,101469.00
2019-01-06T21:03:48.540Z,101467.00
2019-01-06T21:06:32.087Z,101469.00
2019-01-06T21:09:15.902Z,101460.00
2019-01-06T21:11:50.015Z,101468.00
2019-01-06T21:14:40.611Z,101468.00
2019-01-06T21:17:14.675Z,101458.00
2019-01-06T21:20:04.530Z,101459.00
2019-01-06T21:22:47.848Z,101457.00
2019-01-06T21:25:28.517Z,101458.00
2019-01-06T21:28:19.101Z,101462.00
2019-01-06T21:31:11.605Z,101460.00
2019-01-06T21:33:51.774Z,101460.00
2019-01-06T21:36:44.477Z,101461.00
2019-01-06T21:39:34.657Z,101452.00
2019-01-06T21:42:25.543Z,101458.00
2019-01-06T21:45:05.798Z,101465.00
2019-01-06T21:47:46.605Z,101470.00
2019-01-06T21:50:35.731Z,101460.00
2019-01-06T21:53:18.652Z,101458.00
2019-01-06T21:56:01.688Z,101460.00
2019-01-06T21:58:51.693Z,101463.00
2019-01-06T22:01:42.190Z,101465.00
2019-01-06T22:04:32.873Z,101474.00
2019-01-06T22:07:07.111Z,101466.00
2019-01-06T22:09:41.290Z,101460.00
2019-01-06T22:12:30.558Z,101452.00
2019-01-06T22:15:07.799Z,101460.00
2019-01-06T22:17:54.349Z,101451.00
2019-01-06T22:20:35.017Z,101457.00
2019-01-06T22:23:09.436Z,101457.00
2019-01-06T22:26:00.780Z,101455.00
2019-01-06T22:28:44.123Z,101451.00
2019-01-06T22:31:25.237Z,101461.00
2019-01-06T22:34:05.841Z,101464.00
2019-01-06T22:36:56.682Z,101469.00
2019-01-06T22:39:46.733Z,101463.00
2019-01-06T22:42:36.741Z,101466.00
2019-01-06T22:45:19.420Z,101467.00
2019-01-06T22:48:06.180Z,101456.00
2019-01-06T22:50:58.176Z,101461.00
2019-01-06T22:53:41.997Z,101455.00
2019-01-06T22:56:24.833Z,101462.00
2019-01-06T22:58:59.855Z,101453.00
2019-01-06T23:01:36.948Z,101446.00
2019-01-06T23:04:14.106Z,101448.00
2019-01-06T23:06:54.203Z,101453.00
2019-01-06T23:09:35.043Z,101461.00
2019-01-06T23:12:09.187Z,101464.00
2019-01-06T23:14:59.971Z,101464.00
2019-01-06T23:17:43.586Z,101475.00
2019-01-06T23:20:17.710Z,101467.00
2019-01-06T23:23:00.540Z,101470.00
2019-01-06T23:25:37.691Z,101463.00
2019-01-06T23:28:20.865Z,101454.00
2019-01-06T23:30:55.367Z,101456.00
2019-01-06T23:33:32.168Z,101453.00
2019-01-06T23:36:12.299Z,101448.00
2019-01-06T23:39:01.658Z,101448.00
2019-01-06T23:41:39.045Z,101460.00
2019-01-06T23:44:20.362Z,101469.00
2019-01-06T23:47:00.994Z,101481.00
2019-01-06T23:49:37.973Z,101453.00
2019-01-06T23:52:28.468Z,101460.00
2019-01-06T23:55:08.428Z,101467.00
2019-01-06T23:57:43.079Z,101461.00
